Time;durP1;ratioP1;P1;durP2;ratioP2;P2;SDS_P1;SDS_P2;PMS_P1;PMS_P2;Temp;Humidity;BMP_temperature;BMP_pressure;BME280_temperature;BME280_humidity;BME280_pressure;Samples;Min_cycle;Max_cycle;Signal;HPM_P1;HPM_P2
2021/01/08 00:00:50;;;;;;;1.63;1.38;;;4.60;85.90;;;;;;5091920;28;20024;-94
2021/01/08 00:03:15;;;;;;;1.50;1.30;;;4.70;86.00;;;;;;5079311;28;20024;-95
2021/01/08 00:05:41;;;;;;;1.40;1.30;;;4.70;86.00;;;;;;5076439;28;20497;-95
2021/01/08 00:08:07;;;;;;;1.50;1.40;;;4.70;86.60;;;;;;5086219;28;20008;-94
2021/01/08 00:10:32;;;;;;;1.50;1.38;;;4.70;86.00;;;;;;5099829;28;20068;-94
2021/01/08 00:12:58;;;;;;;1.38;1.27;;;4.70;85.90;;;;;;5090117;28;20021;-94
2021/01/08 00:15:24;;;;;;;2.10;1.38;;;4.70;85.80;;;;;;5098615;28;20012;-94
2021/01/08 00:17:49;;;;;;;1.77;1.60;;;4.80;85.80;;;;;;5084768;28;20028;-93
2021/01/08 00:20:15;;;;;;;1.65;1.55;;;4.80;85.60;;;;;;5076990;28;20020;-94
2021/01/08 00:22:41;;;;;;;1.83;1.60;;;4.80;86.30;;;;;;5069552;28;20424;-93
2021/01/08 00:25:07;;;;;;;1.58;1.45;;;4.70;85.60;;;;;;5061247;28;20469;-94
2021/01/08 00:27:32;;;;;;;1.42;1.33;;;4.70;85.70;;;;;;5060709;28;20056;-93
2021/01/08 00:29:58;;;;;;;1.60;1.50;;;4.70;86.40;;;;;;5063134;28;20496;-93
2021/01/08 00:32:24;;;;;;;1.23;1.13;;;4.70;85.80;;;;;;5061750;28;20123;-93
2021/01/08 00:34:49;;;;;;;1.63;1.38;;;4.70;85.80;;;;;;5062663;28;20024;-93
2021/01/08 00:37:15;;;;;;;1.60;1.25;;;4.60;85.70;;;;;;5057056;28;20119;-94
2021/01/08 00:39:41;;;;;;;1.48;1.33;;;4.70;85.80;;;;;;5064690;28;20017;-94
2021/01/08 00:42:08;;;;;;;1.73;1.30;;;4.80;85.80;;;;;;5062858;28;20389;-93
2021/01/08 00:44:34;;;;;;;1.98;1.40;;;4.70;85.80;;;;;;5061780;28;20017;-94
2021/01/08 00:46:59;;;;;;;1.85;1.30;;;4.70;85.80;;;;;;5063498;28;20489;-94
2021/01/08 00:49:25;;;;;;;1.77;1.35;;;4.70;86.40;;;;;;5064081;28;20048;-94
2021/01/08 00:51:52;;;;;;;1.63;1.40;;;4.70;85.80;;;;;;5058587;28;20604;-95
2021/01/08 00:54:19;;;;;;;1.58;1.30;;;4.60;85.80;;;;;;5055282;28;20581;-94
2021/01/08 00:56:46;;;;;;;1.20;1.10;;;4.70;85.80;;;;;;5080428;28;20044;-94
2021/01/08 00:59:12;;;;;;;1.58;1.40;;;4.60;85.70;;;;;;5082110;28;20361;-94
2021/01/08 01:01:37;;;;;;;1.33;1.23;;;4.60;85.90;;;;;;5062455;28;20033;-94
2021/01/08 01:04:03;;;;;;;1.20;1.10;;;4.60;85.80;;;;;;5061432;28;22839;-94
2021/01/08 01:06:33;;;;;;;1.95;1.30;;;4.60;85.90;;;;;;5057071;28;20021;-94
2021/01/08 01:09:00;;;;;;;1.17;1.08;;;4.60;85.80;;;;;;5059099;28;20045;-93
2021/01/08 01:11:27;;;;;;;1.63;1.20;;;4.70;85.80;;;;;;5054660;28;20079;-94
2021/01/08 01:13:57;;;;;;;1.98;1.30;;;4.70;85.80;;;;;;5052966;28;20025;-93
2021/01/08 01:16:24;;;;;;;1.50;1.40;;;4.90;85.90;;;;;;5059958;28;20020;-94
2021/01/08 01:18:52;;;;;;;1.75;1.30;;;4.70;85.70;;;;;;5058895;28;20017;-93
2021/01/08 01:21:18;;;;;;;1.75;1.52;;;4.70;85.70;;;;;;5057990;28;20025;-94
2021/01/08 01:23:44;;;;;;;1.30;1.20;;;4.70;85.80;;;;;;5060988;28;20048;-93
2021/01/08 01:26:11;;;;;;;1.45;1.35;;;4.70;85.70;;;;;;5062024;28;20048;-94
2021/01/08 01:28:37;;;;;;;1.60;1.50;;;4.60;85.70;;;;;;5060775;28;20038;-93
2021/01/08 01:31:03;;;;;;;1.60;1.50;;;4.60;85.80;;;;;;5059064;28;20037;-93
2021/01/08 01:33:30;;;;;;;1.30;1.20;;;4.60;85.80;;;;;;5056915;28;20025;-93
2021/01/08 01:35:57;;;;;;;1.25;1.15;;;4.70;85.90;;;;;;5064563;28;20025;-94
2021/01/08 01:38:23;;;;;;;2.22;1.65;;;4.60;85.80;;;;;;5065641;28;20036;-93
2021/01/08 01:40:49;;;;;;;1.58;1.42;;;4.60;85.70;;;;;;5070998;28;20031;-94
2021/01/08 01:43:16;;;;;;;1.52;1.35;;;4.60;85.80;;;;;;5060193;28;20033;-93
2021/01/08 01:45:42;;;;;;;1.38;1.27;;;4.60;85.70;;;;;;5078240;28;20004;-94
2021/01/08 01:48:08;;;;;;;1.48;1.30;;;4.60;85.70;;;;;;5081818;28;20034;-94
2021/01/08 01:50:34;;;;;;;1.42;1.23;;;4.60;85.70;;;;;;5070008;28;20025;-92
2021/01/08 01:53:00;;;;;;;1.65;1.42;;;4.60;85.60;;;;;;5078782;28;20047;-93
2021/01/08 01:55:27;;;;;;;1.55;1.42;;;4.60;85.70;;;;;;5073616;28;20028;-94
2021/01/08 01:57:53;;;;;;;1.50;1.20;;;4.50;85.70;;;;;;5068440;28;20111;-94
2021/01/08 02:00:20;;;;;;;1.38;1.27;;;4.60;85.80;;;;;;5069375;28;20108;-94
2021/01/08 02:02:51;;;;;;;1.38;1.27;;;4.60;85.90;;;;;;5072472;28;20127;-94
2021/01/08 02:05:18;;;;;;;1.33;1.23;;;4.60;85.90;;;;;;5074059;28;20222;-94
2021/01/08 02:08:07;;;;;;;1.45;1.23;;;4.60;85.80;;;;;;5071924;28;20028;-94
2021/01/08 02:10:45;;;;;;;1.23;1.13;;;4.60;85.80;;;;;;5088871;28;20032;-94
2021/01/08 02:13:17;;;;;;;1.27;1.17;;;4.60;85.80;;;;;;5077511;28;20031;-93
2021/01/08 02:15:45;;;;;;;1.30;1.20;;;4.60;85.70;;;;;;5069317;28;20334;-93
2021/01/08 02:18:11;;;;;;;1.70;1.60;;;4.60;85.80;;;;;;5070675;28;20021;-93
2021/01/08 02:20:37;;;;;;;1.38;1.27;;;4.60;85.80;;;;;;5070607;28;20036;-93
2021/01/08 02:23:09;;;;;;;2.38;1.38;;;4.60;85.80;;;;;;5069480;28;20032;-93
2021/01/08 02:25:36;;;;;;;1.38;1.27;;;4.60;85.80;;;;;;5068220;28;20016;-94
2021/01/08 02:28:17;;;;;;;1.48;1.30;;;4.50;85.80;;;;;;5069167;28;20106;-93
2021/01/08 02:30:44;;;;;;;1.52;1.40;;;4.60;85.90;;;;;;5071696;28;20151;-94
2021/01/08 02:33:11;;;;;;;1.45;1.35;;;4.50;85.80;;;;;;5068229;28;20020;-93
2021/01/08 02:35:37;;;;;;;1.55;1.30;;;4.70;85.90;;;;;;5069980;28;20113;-93
2021/01/08 02:38:04;;;;;;;1.50;1.40;;;4.60;85.90;;;;;;5071754;28;20378;-94
2021/01/08 02:40:30;;;;;;;1.23;1.13;;;4.60;85.90;;;;;;5062525;28;20025;-94
2021/01/08 02:43:00;;;;;;;1.20;1.10;;;4.60;85.80;;;;;;5069648;28;20102;-93
2021/01/08 02:45:26;;;;;;;1.50;1.40;;;4.60;85.80;;;;;;5069360;28;20021;-93
2021/01/08 02:47:52;;;;;;;1.50;1.40;;;4.50;85.60;;;;;;5071765;28;20025;-94
2021/01/08 02:50:18;;;;;;;1.55;1.35;;;4.60;85.60;;;;;;5068818;28;20470;-94
2021/01/08 02:52:48;;;;;;;1.77;1.63;;;4.60;85.80;;;;;;5070205;28;20054;-94
2021/01/08 02:55:19;;;;;;;1.58;1.48;;;4.50;85.70;;;;;;5070740;28;20020;-94
2021/01/08 02:57:45;;;;;;;1.48;1.38;;;4.50;85.70;;;;;;5069987;28;20040;-94
2021/01/08 03:00:12;;;;;;;1.63;1.30;;;4.50;85.80;;;;;;5070993;28;20013;-96
2021/01/08 03:02:38;;;;;;;1.42;1.33;;;4.50;85.80;;;;;;5069591;28;20028;-95
2021/01/08 03:05:05;;;;;;;1.20;1.10;;;4.60;85.80;;;;;;5069628;28;20111;-94
2021/01/08 03:07:33;;;;;;;1.48;1.33;;;4.60;85.60;;;;;;5069709;28;20028;-95
2021/01/08 03:10:05;;;;;;;1.30;1.20;;;4.60;85.70;;;;;;5070802;28;20012;-94
2021/01/08 03:12:34;;;;;;;1.70;1.17;;;4.70;85.80;;;;;;5071285;28;20042;-94
2021/01/08 03:15:04;;;;;;;1.70;1.23;;;4.70;85.80;;;;;;5072403;28;20043;-94
2021/01/08 03:17:29;;;;;;;1.85;1.38;;;4.70;85.80;;;;;;5073101;28;20024;-94
2021/01/08 03:19:55;;;;;;;1.63;1.50;;;4.70;85.70;;;;;;5094599;28;20024;-94
2021/01/08 03:22:21;;;;;;;1.65;1.42;;;4.70;85.60;;;;;;5096764;28;20076;-95
2021/01/08 03:24:47;;;;;;;1.50;1.40;;;4.70;85.60;;;;;;5073938;28;20032;-94
2021/01/08 03:27:13;;;;;;;1.50;1.40;;;4.70;85.70;;;;;;5066727;28;20032;-92
2021/01/08 03:29:38;;;;;;;1.67;1.30;;;4.70;85.70;;;;;;5084408;28;20020;-94
2021/01/08 03:32:07;;;;;;;1.40;1.30;;;4.70;85.60;;;;;;5084132;28;20025;-95
2021/01/08 03:34:32;;;;;;;1.50;1.40;;;4.80;85.60;;;;;;5077119;28;20483;-94
2021/01/08 03:36:58;;;;;;;1.50;1.40;;;4.70;85.50;;;;;;5091016;28;20021;-93
2021/01/08 03:39:25;;;;;;;1.27;1.08;;;4.70;85.50;;;;;;5087393;28;20017;-95
2021/01/08 03:41:50;;;;;;;1.42;1.33;;;4.70;85.60;;;;;;5097125;28;20032;-93
2021/01/08 03:44:16;;;;;;;1.65;1.50;;;4.70;85.60;;;;;;5096811;28;20035;-94
2021/01/08 03:46:42;;;;;;;1.50;1.40;;;4.70;85.50;;;;;;5098203;28;20051;-94
2021/01/08 03:49:08;;;;;;;1.40;1.30;;;4.70;85.60;;;;;;5098319;28;20013;-94
2021/01/08 03:51:34;;;;;;;1.50;1.40;;;4.70;85.50;;;;;;5095534;28;20039;-95
2021/01/08 03:54:00;;;;;;;1.27;1.17;;;4.70;85.50;;;;;;5086445;28;20028;-94
2021/01/08 03:56:26;;;;;;;1.52;1.38;;;4.70;85.60;;;;;;5069644;28;20096;-94
2021/01/08 03:58:55;;;;;;;2.33;1.48;;;4.70;85.50;;;;;;5093004;28;20016;-95
2021/01/08 04:01:24;;;;;;;1.50;1.40;;;4.70;85.50;;;;;;5080121;28;20075;-94
2021/01/08 04:03:49;;;;;;;1.65;1.50;;;4.70;85.60;;;;;;5063349;28;20029;-95
2021/01/08 04:06:15;;;;;;;1.50;1.40;;;4.70;85.60;;;;;;5066828;28;20107;-94
2021/01/08 04:08:41;;;;;;;1.73;1.45;;;4.60;85.50;;;;;;5083166;28;20066;-94
2021/01/08 04:11:07;;;;;;;1.40;1.20;;;4.60;85.60;;;;;;5093433;28;20033;-95
2021/01/08 04:13:32;;;;;;;1.92;1.70;;;4.70;85.70;;;;;;5097386;28;20043;-94
2021/01/08 04:15:58;;;;;;;1.50;1.40;;;4.70;85.70;;;;;;5077138;28;20031;-94
2021/01/08 04:18:23;;;;;;;1.52;1.42;;;4.50;85.50;;;;;;5073542;28;20032;-95
2021/01/08 04:20:49;;;;;;;1.80;1.67;;;4.70;85.70;;;;;;5070611;28;20522;-94
2021/01/08 04:23:15;;;;;;;1.45;1.35;;;4.70;85.70;;;;;;5068898;28;20104;-94
2021/01/08 04:25:41;;;;;;;1.85;1.40;;;4.70;85.60;;;;;;5080601;28;20048;-93
2021/01/08 04:28:07;;;;;;;2.28;1.85;;;4.70;85.50;;;;;;5078158;28;20082;-95
2021/01/08 04:30:34;;;;;;;1.70;1.52;;;4.70;85.50;;;;;;5086209;28;20068;-95
2021/01/08 04:33:00;;;;;;;1.90;1.80;;;4.90;85.70;;;;;;5075094;28;20024;-94
2021/01/08 04:35:25;;;;;;;1.90;1.70;;;4.90;85.60;;;;;;5067728;28;20035;-94
2021/01/08 04:37:52;;;;;;;1.95;1.60;;;4.70;85.50;;;;;;5076372;28;20057;-94
2021/01/08 04:40:20;;;;;;;1.73;1.60;;;4.80;85.50;;;;;;5051137;28;20043;-94
2021/01/08 04:42:47;;;;;;;1.73;1.50;;;4.80;85.60;;;;;;5083252;28;20040;-94
2021/01/08 04:45:15;;;;;;;1.50;1.40;;;4.80;85.70;;;;;;5084085;28;20020;-95
2021/01/08 04:47:43;;;;;;;2.08;1.80;;;4.80;85.80;;;;;;5090339;28;20052;-93
2021/01/08 04:50:15;;;;;;;1.42;1.33;;;4.80;85.70;;;;;;5092509;28;20005;-94
2021/01/08 04:52:46;;;;;;;1.75;1.60;;;4.80;85.70;;;;;;5080428;28;20028;-95
2021/01/08 04:55:14;;;;;;;2.13;1.80;;;4.80;85.60;;;;;;5098928;28;20009;-95
2021/01/08 04:57:47;;;;;;;2.08;1.70;;;4.90;85.60;;;;;;5091865;28;20017;-96
2021/01/08 05:00:20;;;;;;;2.60;1.77;;;4.80;85.50;;;;;;5082297;28;20044;-95
2021/01/08 05:02:47;;;;;;;1.65;1.55;;;4.80;85.50;;;;;;5059661;28;20046;-94
2021/01/08 05:05:14;;;;;;;1.63;1.52;;;4.80;85.60;;;;;;5075882;28;20043;-95
2021/01/08 05:07:41;;;;;;;2.67;1.40;;;4.80;85.50;;;;;;5089580;28;20052;-94
2021/01/08 05:10:08;;;;;;;1.70;1.58;;;4.80;85.60;;;;;;5084175;28;20563;-94
2021/01/08 05:12:43;;;;;;;2.00;1.80;;;4.80;85.70;;;;;;5084033;28;20040;-95
2021/01/08 05:15:12;;;;;;;2.00;1.80;;;4.80;85.70;;;;;;5078745;28;20065;-94
2021/01/08 05:17:40;;;;;;;1.63;1.42;;;4.80;85.60;;;;;;5073203;28;20024;-93
2021/01/08 05:20:08;;;;;;;2.40;1.70;;;4.80;85.70;;;;;;5075278;28;20098;-94
2021/01/08 05:22:35;;;;;;;2.15;1.60;;;4.80;85.50;;;;;;5074019;28;20024;-93
2021/01/08 05:25:05;;;;;;;1.77;1.52;;;4.70;85.50;;;;;;5074601;28;20016;-92
2021/01/08 05:27:31;;;;;;;2.00;1.80;;;4.90;85.60;;;;;;5071620;28;20044;-93
2021/01/08 05:30:19;;;;;;;1.98;1.70;;;4.80;85.50;;;;;;5070769;28;20473;-94
2021/01/08 05:32:46;;;;;;;2.13;1.60;;;4.80;85.60;;;;;;5071175;28;20119;-94
2021/01/08 05:35:16;;;;;;;2.00;1.80;;;4.70;85.50;;;;;;5074381;28;20016;-94
2021/01/08 05:37:46;;;;;;;1.67;1.58;;;4.70;85.50;;;;;;5073689;28;20063;-95
2021/01/08 05:40:13;;;;;;;1.50;1.40;;;4.70;85.50;;;;;;5074398;28;20020;-94
2021/01/08 05:42:59;;;;;;;1.40;1.30;;;4.80;85.60;;;;;;5080836;28;20099;-93
2021/01/08 05:45:26;;;;;;;1.70;1.60;;;4.80;85.60;;;;;;5093281;28;20009;-94
2021/01/08 05:47:53;;;;;;;1.60;1.48;;;4.80;85.60;;;;;;5079664;28;20020;-94
2021/01/08 05:50:22;;;;;;;1.90;1.30;;;4.80;85.60;;;;;;5073409;28;20032;-95
2021/01/08 05:52:53;;;;;;;1.52;1.42;;;4.80;85.60;;;;;;5074709;28;20017;-93
2021/01/08 05:55:19;;;;;;;1.48;1.38;;;4.80;85.50;;;;;;5071397;28;20028;-94
2021/01/08 05:57:44;;;;;;;1.95;1.50;;;4.80;85.50;;;;;;5065894;28;20466;-95
2021/01/08 06:00:11;;;;;;;1.50;1.40;;;4.80;85.60;;;;;;5060360;28;20108;-94
2021/01/08 06:02:37;;;;;;;1.70;1.40;;;4.80;85.50;;;;;;5064146;28;20021;-93
2021/01/08 06:05:06;;;;;;;1.60;1.30;;;4.80;85.50;;;;;;5071027;28;20024;-95
2021/01/08 06:08:08;;;;;;;1.35;1.25;;;4.80;85.50;;;;;;5088232;28;20073;-95
2021/01/08 06:10:42;;;;;;;1.52;1.30;;;4.80;85.50;;;;;;5078235;28;20067;-94
2021/01/08 06:13:21;;;;;;;1.45;1.35;;;4.90;85.40;;;;;;5085402;28;20047;-95
2021/01/08 06:16:08;;;;;;;1.80;1.70;;;4.80;85.40;;;;;;5090017;28;20107;-95
2021/01/08 06:18:59;;;;;;;1.45;1.35;;;4.80;85.30;;;;;;5085371;28;20033;-94
2021/01/08 06:21:40;;;;;;;2.33;1.60;;;4.80;85.40;;;;;;5068166;28;20413;-94
2021/01/08 06:24:36;;;;;;;1.40;1.30;;;4.80;85.40;;;;;;5104697;28;20056;-96
2021/01/08 06:27:03;;;;;;;1.98;1.67;;;4.80;85.50;;;;;;5085027;28;20031;-95
2021/01/08 06:29:45;;;;;;;1.80;1.55;;;4.90;85.50;;;;;;5061661;28;20036;-94
2021/01/08 06:32:16;;;;;;;2.17;1.70;;;4.80;85.40;;;;;;5065802;28;20033;-95
2021/01/08 06:34:47;;;;;;;1.92;1.73;;;4.80;85.40;;;;;;5072346;28;20021;-95
2021/01/08 06:37:23;;;;;;;2.00;1.60;;;4.80;85.40;;;;;;5078911;28;20024;-96
2021/01/08 06:39:55;;;;;;;1.77;1.67;;;4.80;85.40;;;;;;5062160;28;20049;-93
2021/01/08 06:42:31;;;;;;;2.13;1.48;;;4.80;85.50;;;;;;5060089;28;20025;-94
2021/01/08 06:44:59;;;;;;;1.45;1.35;;;4.80;85.60;;;;;;5073232;28;20028;-94
2021/01/08 06:47:28;;;;;;;2.20;1.63;;;4.80;85.60;;;;;;5059712;28;20033;-93
2021/01/08 06:49:57;;;;;;;2.22;1.80;;;4.80;85.60;;;;;;5057117;28;20025;-93
2021/01/08 06:52:23;;;;;;;2.10;1.85;;;4.90;85.60;;;;;;5057719;28;20032;-94
2021/01/08 06:54:55;;;;;;;2.97;1.70;;;4.90;85.60;;;;;;5060688;28;20027;-93
2021/01/08 06:57:21;;;;;;;2.17;1.80;;;4.80;85.50;;;;;;5059169;28;20086;-89
2021/01/08 07:00:04;;;;;;;1.50;1.40;;;4.80;85.40;;;;;;5062083;28;20013;-90
2021/01/08 07:02:31;;;;;;;1.98;1.70;;;4.80;85.40;;;;;;5056904;28;20059;-89
2021/01/08 07:05:29;;;;;;;1.50;1.40;;;4.90;85.40;;;;;;5061461;28;20055;-91
2021/01/08 07:07:55;;;;;;;2.00;1.80;;;4.80;85.30;;;;;;5057721;28;20044;-92
2021/01/08 07:10:21;;;;;;;1.50;1.40;;;4.80;85.30;;;;;;5059622;28;20019;-90
2021/01/08 07:12:53;;;;;;;1.67;1.50;;;4.80;85.40;;;;;;5063039;28;20024;-90
2021/01/08 07:15:20;;;;;;;1.85;1.70;;;4.80;85.40;;;;;;5067993;28;20034;-89
2021/01/08 07:17:54;;;;;;;1.77;1.67;;;4.80;85.40;;;;;;5069721;28;20028;-91
2021/01/08 07:20:20;;;;;;;1.77;1.60;;;4.80;85.50;;;;;;5095097;28;20036;-90
2021/01/08 07:22:51;;;;;;;1.45;1.35;;;4.80;85.50;;;;;;5081803;28;20457;-91
2021/01/08 07:25:20;;;;;;;2.03;1.80;;;4.80;85.50;;;;;;5067690;28;20066;-92
2021/01/08 07:27:46;;;;;;;2.25;1.73;;;4.80;85.50;;;;;;5068348;28;20604;-90
2021/01/08 07:30:13;;;;;;;2.28;1.88;;;4.80;85.50;;;;;;5071474;28;20020;-91
2021/01/08 07:32:52;;;;;;;2.13;1.80;;;4.80;85.50;;;;;;5066597;28;20037;-92
2021/01/08 07:35:32;;;;;;;2.03;1.83;;;4.80;85.50;;;;;;5074099;28;20016;-92
2021/01/08 07:38:06;;;;;;;2.08;1.60;;;4.80;85.50;;;;;;5072302;28;20093;-93
2021/01/08 07:41:02;;;;;;;2.00;1.80;;;4.80;85.50;;;;;;5064829;28;20012;-91
2021/01/08 07:43:35;;;;;;;2.00;1.80;;;4.80;85.50;;;;;;5071369;28;20064;-91
2021/01/08 07:46:02;;;;;;;2.00;1.60;;;4.80;85.50;;;;;;5074470;28;20032;-92
2021/01/08 07:48:40;;;;;;;2.10;1.90;;;4.80;85.40;;;;;;5088237;28;20064;-94
2021/01/08 07:54:46;;;;;;;3.35;2.20;;;4.80;85.50;;;;;;5083621;28;20051;-93
2021/01/08 07:57:04;;;;;;;1.65;1.55;;;4.70;85.40;;;;;;5090032;28;20042;-91
2021/01/08 07:59:30;;;;;;;2.10;1.90;;;4.80;85.50;;;;;;5080609;28;20071;-93
2021/01/08 08:01:56;;;;;;;2.38;2.00;;;4.70;85.40;;;;;;5090009;28;20041;-93
2021/01/08 08:04:27;;;;;;;2.10;1.80;;;4.80;85.50;;;;;;5082422;28;20055;-95
2021/01/08 08:06:53;;;;;;;2.35;1.90;;;4.70;85.40;;;;;;5085669;28;20040;-93
2021/01/08 08:09:20;;;;;;;1.98;1.77;;;4.70;85.50;;;;;;5064996;28;20025;-91
2021/01/08 08:11:47;;;;;;;1.90;1.70;;;4.70;85.50;;;;;;5070118;28;20113;-92
2021/01/08 08:14:14;;;;;;;1.90;1.70;;;4.80;85.50;;;;;;5066729;28;20430;-91
2021/01/08 08:16:41;;;;;;;2.00;1.73;;;4.80;85.50;;;;;;5067088;28;20037;-88
2021/01/08 08:19:09;;;;;;;2.58;1.80;;;4.80;85.50;;;;;;5066797;28;20017;-93
2021/01/08 08:21:35;;;;;;;1.90;1.70;;;4.80;85.50;;;;;;5066602;28;20036;-91
2021/01/08 08:24:04;;;;;;;1.98;1.77;;;4.80;85.50;;;;;;5069693;28;20024;-93
2021/01/08 08:26:33;;;;;;;2.13;1.75;;;4.80;85.50;;;;;;5070702;28;20028;-94
2021/01/08 08:29:04;;;;;;;2.30;1.77;;;4.80;85.40;;;;;;5066750;28;20482;-93
2021/01/08 08:31:31;;;;;;;2.55;1.98;;;4.80;85.50;;;;;;5064654;28;20059;-91
2021/01/08 08:33:57;;;;;;;2.80;1.98;;;4.80;86.00;;;;;;5067809;28;20668;-94
2021/01/08 08:40:39;;;;;;;;;;;;;;;;;;;;;
2021/01/08 08:43:22;;;;;;;2.08;1.70;;;4.90;85.30;;;;;;4996148;28;20064;-91
2021/01/08 08:46:50;;;;;;;;;;;;;;;;;;;;;
2021/01/08 08:49:34;;;;;;;2.08;1.88;;;4.90;85.30;;;;;;5066924;28;20047;-92
2021/01/08 08:53:12;;;;;;;2.42;1.60;;;4.90;85.30;;;;;;5049023;28;20131;-94
2021/01/08 08:55:43;;;;;;;1.73;1.60;;;4.90;85.20;;;;;;5048898;28;20032;-94
2021/01/08 08:58:47;;;;;;;2.40;1.98;;;4.90;85.10;;;;;;5062976;28;20040;-93
2021/01/08 09:01:14;;;;;;;1.90;1.70;;;4.90;85.30;;;;;;5055047;28;20509;-92
2021/01/08 09:03:39;;;;;;;2.25;1.88;;;4.90;85.20;;;;;;5069081;28;20048;-93
2021/01/08 09:06:09;;;;;;;2.03;1.75;;;4.90;85.20;;;;;;5057987;28;20047;-93
2021/01/08 09:08:40;;;;;;;3.20;2.00;;;4.90;85.20;;;;;;5072299;28;20039;-90
2021/01/08 09:11:29;;;;;;;2.30;1.90;;;5.00;85.30;;;;;;5065256;28;20033;-88
2021/01/08 09:14:15;;;;;;;2.42;2.10;;;4.90;85.10;;;;;;5064850;28;20024;-93
2021/01/08 09:16:52;;;;;;;2.28;1.92;;;4.90;85.10;;;;;;5076750;28;20023;-95
2021/01/08 09:19:35;;;;;;;2.10;1.85;;;5.00;85.10;;;;;;5073933;28;20359;-94
2021/01/08 09:22:14;;;;;;;2.28;1.90;;;4.90;85.10;;;;;;5069371;28;20008;-94
2021/01/08 09:24:55;;;;;;;2.03;1.70;;;4.90;85.10;;;;;;5083319;28;20024;-93
2021/01/08 09:27:41;;;;;;;;;;;;;;;;;;;;;
2021/01/08 09:30:11;;;;;;;2.42;1.90;;;4.90;85.10;;;;;;5083815;28;20063;-93
2021/01/08 09:32:37;;;;;;;2.35;1.90;;;4.90;85.20;;;;;;5064156;28;20532;-92
2021/01/08 09:35:31;;;;;;;2.10;1.88;;;4.90;85.10;;;;;;5067103;28;20028;-96
2021/01/08 09:38:01;;;;;;;1.83;1.60;;;4.90;85.20;;;;;;5060057;28;20036;-93
2021/01/08 09:40:34;;;;;;;2.03;1.70;;;4.90;85.30;;;;;;5061088;28;20024;-92
2021/01/08 09:43:00;;;;;;;1.55;1.42;;;4.90;85.20;;;;;;5069555;28;20035;-95
2021/01/08 09:45:26;;;;;;;1.48;1.38;;;4.90;85.10;;;;;;5061311;28;20030;-89
2021/01/08 09:47:53;;;;;;;1.17;1.08;;;4.90;85.10;;;;;;5074939;22;20048;-92
2021/01/08 09:50:27;;;;;;;1.20;1.10;;;4.90;85.20;;;;;;5072212;28;20024;-95
2021/01/08 09:52:59;;;;;;;0.90;0.90;;;4.90;85.00;;;;;;5068393;28;20028;-95
2021/01/08 09:55:31;;;;;;;1.35;1.20;;;5.00;84.90;;;;;;5072714;28;20032;-94
2021/01/08 09:58:18;;;;;;;1.20;1.10;;;5.10;84.80;;;;;;5072710;28;20031;-92
2021/01/08 10:00:49;;;;;;;1.20;1.10;;;5.10;84.60;;;;;;5074726;28;20064;-92
2021/01/08 10:03:20;;;;;;;1.08;1.00;;;5.20;84.50;;;;;;5069847;28;20509;-93
2021/01/08 10:05:45;;;;;;;1.10;1.00;;;5.10;84.40;;;;;;5074497;28;20025;-94
2021/01/08 10:08:22;;;;;;;1.13;1.02;;;5.10;84.40;;;;;;5076130;28;20032;-92
2021/01/08 10:10:48;;;;;;;1.20;1.10;;;5.10;84.40;;;;;;5079984;28;20040;-93
2021/01/08 10:13:17;;;;;;;1.00;1.00;;;5.10;84.20;;;;;;5074270;28;20044;-92
2021/01/08 10:15:51;;;;;;;1.20;1.10;;;5.10;84.20;;;;;;5067060;28;20017;-94
2021/01/08 10:18:26;;;;;;;1.30;1.20;;;5.10;84.20;;;;;;5076427;28;20063;-91
2021/01/08 10:21:06;;;;;;;2.35;1.20;;;5.20;84.10;;;;;;5085798;28;20048;-92
2021/01/08 10:23:39;;;;;;;1.45;1.30;;;5.20;84.20;;;;;;5080502;28;20088;-92
2021/01/08 10:26:18;;;;;;;1.23;1.08;;;5.20;84.10;;;;;;5068551;28;20024;-93
2021/01/08 10:28:54;;;;;;;1.08;0.98;;;5.10;84.20;;;;;;5087570;28;20028;-94
2021/01/08 10:31:21;;;;;;;1.20;1.10;;;5.20;84.20;;;;;;5070146;28;20559;-95
2021/01/08 10:33:47;;;;;;;1.25;1.15;;;5.30;84.10;;;;;;5079907;28;20017;-96
2021/01/08 10:36:14;;;;;;;1.48;1.25;;;5.30;83.90;;;;;;5078092;28;20350;-92
2021/01/08 10:38:40;;;;;;;1.27;1.17;;;5.30;83.80;;;;;;5072443;28;20051;-92
2021/01/08 10:41:15;;;;;;;1.40;1.30;;;5.40;83.80;;;;;;5073087;28;20036;-96
2021/01/08 10:43:40;;;;;;;1.40;1.30;;;5.40;83.70;;;;;;5083437;28;20033;-96
2021/01/08 10:46:11;;;;;;;1.33;1.23;;;5.40;83.60;;;;;;5077721;28;20033;-96
2021/01/08 10:48:37;;;;;;;1.30;1.20;;;5.40;83.50;;;;;;5070302;28;20028;-94
2021/01/08 10:51:11;;;;;;;1.20;1.00;;;5.50;83.50;;;;;;5082783;28;20473;-96
2021/01/08 10:53:36;;;;;;;2.33;1.30;;;5.60;83.50;;;;;;5085069;28;20108;-96
2021/01/08 10:56:03;;;;;;;1.25;1.15;;;5.70;83.40;;;;;;5082354;28;20028;-96
2021/01/08 10:58:30;;;;;;;1.20;1.10;;;5.70;83.20;;;;;;5086325;28;20040;-90
2021/01/08 11:00:55;;;;;;;0.90;0.90;;;5.70;83.20;;;;;;5071065;28;20028;-88
2021/01/08 11:03:21;;;;;;;1.35;1.20;;;5.70;83.10;;;;;;5062720;28;20025;-89
2021/01/08 11:05:46;;;;;;;1.40;1.30;;;5.70;83.10;;;;;;5064992;28;20028;-88
2021/01/08 11:08:12;;;;;;;1.25;1.15;;;5.60;83.20;;;;;;5066131;28;20070;-88
2021/01/08 11:10:39;;;;;;;1.40;1.30;;;5.70;83.30;;;;;;5066656;28;20025;-88
2021/01/08 11:13:06;;;;;;;1.65;1.50;;;5.70;83.20;;;;;;5064896;28;20474;-88
2021/01/08 11:15:33;;;;;;;1.42;1.33;;;5.70;83.20;;;;;;5063578;28;20047;-88
2021/01/08 11:17:59;;;;;;;1.63;1.40;;;5.70;83.10;;;;;;5065373;28;20055;-89
2021/01/08 11:20:28;;;;;;;1.23;1.10;;;5.70;83.20;;;;;;5062605;28;20021;-89
2021/01/08 11:23:03;;;;;;;1.20;1.10;;;5.60;83.20;;;;;;5068114;28;20033;-89
2021/01/08 11:25:50;;;;;;;1.13;1.02;;;5.60;83.30;;;;;;5068925;28;20013;-89
2021/01/08 11:28:16;;;;;;;1.50;1.40;;;5.70;83.40;;;;;;5060784;28;20329;-88
2021/01/08 11:30:41;;;;;;;1.25;1.15;;;5.50;83.10;;;;;;5062987;28;20029;-89
2021/01/08 11:33:07;;;;;;;1.30;1.20;;;5.40;83.00;;;;;;5061874;28;20125;-89
2021/01/08 11:35:34;;;;;;;1.42;1.33;;;5.40;83.20;;;;;;5064581;28;20067;-89
2021/01/08 11:37:59;;;;;;;1.48;1.15;;;5.40;83.20;;;;;;5066727;28;20028;-89
2021/01/08 11:40:25;;;;;;;1.42;1.33;;;5.40;83.20;;;;;;5067276;28;20021;-89
2021/01/08 11:42:50;;;;;;;1.30;1.20;;;5.40;83.20;;;;;;5069310;28;20119;-89
2021/01/08 11:45:16;;;;;;;1.40;1.30;;;5.40;83.20;;;;;;5073445;28;20052;-89
2021/01/08 11:47:42;;;;;;;1.30;1.20;;;5.50;83.20;;;;;;5071431;28;20025;-89
2021/01/08 11:50:08;;;;;;;1.27;1.17;;;5.50;83.20;;;;;;5069287;28;20569;-89
2021/01/08 11:52:33;;;;;;;1.20;1.10;;;5.50;83.10;;;;;;5073135;28;20203;-89
2021/01/08 11:55:08;;;;;;;1.40;1.30;;;5.50;83.10;;;;;;5079826;28;20024;-96
2021/01/08 11:57:54;;;;;;;1.33;1.23;;;5.40;83.00;;;;;;5077306;28;20035;-94
2021/01/08 12:00:22;;;;;;;1.30;1.20;;;5.40;83.00;;;;;;5091438;28;20051;-91
2021/01/08 12:02:50;;;;;;;1.13;1.02;;;5.50;83.00;;;;;;5092786;28;20072;-92
2021/01/08 12:05:26;;;;;;;;;;;;;;;;;;;;;
2021/01/08 12:07:51;;;;;;;1.30;1.20;;;5.50;82.90;;;;;;5081620;28;20108;-93
2021/01/08 12:10:17;;;;;;;1.23;1.13;;;5.50;83.00;;;;;;5089735;28;20100;-91
2021/01/08 12:12:49;;;;;;;1.20;1.10;;;5.50;83.00;;;;;;5088131;28;20032;-93
2021/01/08 12:15:17;;;;;;;1.35;1.25;;;5.50;82.90;;;;;;5078986;28;20019;-96
2021/01/08 12:17:43;;;;;;;1.00;1.00;;;5.70;83.00;;;;;;5080011;28;20041;-95
2021/01/08 12:20:10;;;;;;;1.30;1.20;;;5.60;82.90;;;;;;5071482;28;20043;-93
2021/01/08 12:25:48;;;;;;;1.20;1.10;;;5.60;82.70;;;;;;5082413;28;20021;-94
2021/01/08 12:28:14;;;;;;;1.98;1.27;;;5.60;82.60;;;;;;5093312;28;20036;-95
2021/01/08 12:30:39;;;;;;;1.33;1.23;;;5.50;82.50;;;;;;5090332;28;20108;-93
2021/01/08 12:33:05;;;;;;;1.00;1.00;;;5.50;82.40;;;;;;5068283;28;20035;-94
2021/01/08 12:35:35;;;;;;;1.20;1.10;;;5.60;82.50;;;;;;5068147;28;20074;-91
2021/01/08 12:38:00;;;;;;;1.30;1.20;;;5.60;82.40;;;;;;5068576;28;20024;-92
2021/01/08 12:40:40;;;;;;;0.95;0.95;;;5.70;82.30;;;;;;5071399;28;20037;-94
2021/01/08 12:43:08;;;;;;;1.02;1.02;;;5.70;82.10;;;;;;5064912;28;20012;-93
2021/01/08 12:45:46;;;;;;;;;;;;;;;;;;;;;
2021/01/08 12:48:35;;;;;;;1.05;1.05;;;5.70;82.00;;;;;;5068839;28;20825;-93
2021/01/08 12:51:03;;;;;;;1.50;1.15;;;5.90;81.70;;;;;;5070610;28;20044;-95
2021/01/08 12:53:29;;;;;;;1.48;1.00;;;6.10;82.00;;;;;;5065503;28;20017;-94
2021/01/08 12:56:00;;;;;;;1.40;1.30;;;6.60;80.90;;;;;;5071794;28;20008;-92
2021/01/08 12:58:43;;;;;;;1.50;1.40;;;6.50;80.40;;;;;;5073151;28;20021;-91
2021/01/08 13:01:12;;;;;;;;;;;6.40;80.70;;;;;;5068321;28;20482;-93
2021/01/08 13:03:39;;;;;;;1.00;1.00;;;6.30;80.90;;;;;;5071773;28;20102;-92
2021/01/08 13:06:05;;;;;;;1.10;1.10;;;6.40;81.20;;;;;;5069526;28;20025;-92
2021/01/08 13:08:44;;;;;;;1.55;1.45;;;6.40;81.00;;;;;;5072205;28;20025;-96
2021/01/08 13:11:10;;;;;;;1.27;1.17;;;6.60;80.90;;;;;;5081295;28;20028;-95
2021/01/08 13:13:58;;;;;;;1.33;1.23;;;7.30;80.10;;;;;;5048173;28;20040;-94
2021/01/08 13:16:24;;;;;;;1.17;1.08;;;7.30;79.40;;;;;;5030327;28;20043;-96
2021/01/08 13:18:50;;;;;;;1.40;1.30;;;7.00;79.30;;;;;;5082273;28;20044;-95
2021/01/08 13:21:16;;;;;;;1.45;1.35;;;6.70;79.80;;;;;;5095360;28;20026;-95
2021/01/08 13:23:43;;;;;;;1.77;1.65;;;6.50;80.10;;;;;;5093629;28;20049;-96
2021/01/08 13:26:10;;;;;;;2.10;1.88;;;6.40;80.30;;;;;;5079439;28;20470;-94
2021/01/08 13:28:57;;;;;;;1.58;1.48;;;6.00;80.40;;;;;;5068334;28;20031;-96